Terminal Aerodrome Forecast
Issued by NWS Corpus Christi, TX

Home | Current Version | Previous Version | Text Only | Print | Product List | Glossary On
Versions: 1 2 3 4 5 6 7 8 9 10 11 12 13 14
000
FTUS44 KCRP 131729
TAFCRP
TAF
KCRP 131729Z 1318/1418 17007KT P6SM SCT150 OVC250
     FM140600 19005KT P6SM SCT120 BKN250
      TEMPO 1411/1413 5SM BR
     FM141400 07006KT P6SM BKN100 OVC200=

USA.gov is the U.S. government's official web portal to all federal, state and local government web resources and services.